createdAt,value
2023-05-12T00:03:01.048Z,-15456
2023-05-12T00:08:02.561Z,-15456
2023-05-12T00:13:04.009Z,-12376
2023-05-12T00:18:05.776Z,-15456
2023-05-12T00:23:07.250Z,-15456
2023-05-12T00:28:08.742Z,-15456
2023-05-12T00:33:10.237Z,-15456
2023-05-12T00:38:11.647Z,-15456
2023-05-12T00:43:13.058Z,-15456
2023-05-12T00:48:14.462Z,-30856
2023-05-12T00:53:15.852Z,-30856
2023-05-12T00:58:17.385Z,-15456
2023-05-12T01:03:18.933Z,-20589.33333
2023-05-12T01:08:20.452Z,3186.10526
2023-05-12T01:13:21.821Z,4344
2023-05-12T01:18:23.368Z,988.0678
2023-05-12T01:23:24.879Z,799.55556
2023-05-12T01:28:26.341Z,547.92157
2023-05-12T01:33:27.772Z,560
2023-05-12T01:38:29.259Z,1176
2023-05-12T01:43:30.653Z,2408
2023-05-12T01:48:32.047Z,432.88889
2023-05-12T01:53:33.502Z,525.13208
2023-05-12T01:58:35.033Z,466.0339
2023-05-12T02:03:36.706Z,470.49573
2023-05-12T02:08:38.257Z,354.66667
2023-05-12T02:13:39.703Z,319.60976
2023-05-12T02:18:41.159Z,425.25
2023-05-12T02:23:42.675Z,479.65217
2023-05-12T02:28:44.118Z,292.0226
2023-05-12T02:33:45.672Z,198.54545
2023-05-12T02:38:47.144Z,302.13953
2023-05-12T02:43:48.752Z,440.77419
2023-05-12T02:48:50.175Z,436.8
2023-05-12T02:53:51.552Z,371.77778
2023-05-12T02:58:53.171Z,234.56604
2023-05-12T03:03:54.658Z,310.66667
2023-05-12T03:08:56.076Z,282.46154
2023-05-12T03:13:57.480Z,273.41176
2023-05-12T03:18:58.932Z,284.33149
2023-05-12T03:24:00.377Z,216.56637
2023-05-12T03:29:01.801Z,198.54545
2023-05-12T03:34:03.246Z,177.33333
2023-05-12T03:39:04.638Z,163.21708
2023-05-12T03:44:06.031Z,215.36564
2023-05-12T03:49:07.448Z,201.74059
2023-05-12T03:54:08.853Z,247.44828
2023-05-12T03:59:10.275Z,234.56604
2023-05-12T04:04:11.745Z,157.14879
2023-05-12T04:09:13.266Z,227.87097
2023-05-12T04:14:14.851Z,173.85075
2023-05-12T04:19:16.226Z,192.3871
2023-05-12T04:24:17.617Z,410.66667
2023-05-12T04:29:19.005Z,453.09091
2023-05-12T04:34:20.407Z,390.37681
2023-05-12T04:39:21.837Z,187.47826
2023-05-12T04:44:23.213Z,176.45283
2023-05-12T04:49:24.601Z,174.71161
2023-05-12T04:54:26.072Z,152.10811
2023-05-12T04:59:27.464Z,203.91561
2023-05-12T05:04:28.885Z,197.49794
2023-05-12T05:09:30.297Z,252
2023-05-12T05:14:32.275Z,197.49794
2023-05-12T05:19:43.902Z,140.17834
2023-05-12T05:24:53.834Z,127.33333
2023-05-12T05:29:55.255Z,147.30033
2023-05-12T05:34:56.876Z,164
2023-05-12T05:39:58.351Z,183.68872
2023-05-12T05:44:59.745Z,194.4065
2023-05-12T05:50:01.315Z,206.12766
2023-05-12T05:55:02.663Z,179.1145
2023-05-12T06:00:04.048Z,168
2023-05-12T06:05:05.444Z,159.38462
2023-05-12T06:10:06.913Z,176.45283
2023-05-12T06:15:08.317Z,161.66784
2023-05-12T06:20:09.719Z,142.70968
2023-05-12T06:25:11.109Z,187.47826
2023-05-12T06:30:14.946Z,195.42857
2023-05-12T06:35:28.225Z,161.66784
2023-05-12T06:40:29.606Z,134.71207
2023-05-12T06:45:30.999Z,146.63158
2023-05-12T06:50:43.338Z,194.4065
2023-05-12T06:55:44.723Z,207.24786
2023-05-12T07:00:46.132Z,179.1145
2023-05-12T07:05:47.576Z,154.23891
2023-05-12T07:10:48.983Z,162.43972
2023-05-12T07:15:50.410Z,156.41379
2023-05-12T07:20:51.860Z,167.18841
2023-05-12T07:25:53.234Z,136.5
2023-05-12T07:30:54.668Z,144.65147
2023-05-12T07:35:56.094Z,142.07074
2023-05-12T07:40:58.123Z,137.71069
2023-05-12T07:45:59.534Z,122.55072
2023-05-12T07:51:01.268Z,141.4359
2023-05-12T07:56:02.744Z,123.06977
2023-05-12T08:01:04.322Z,116.06704
2023-05-12T08:06:05.772Z,119
2023-05-12T08:11:07.167Z,119
2023-05-12T08:16:08.582Z,146.63158
2023-05-12T08:21:09.997Z,114.16575
2023-05-12T08:26:11.375Z,110.03774
2023-05-12T08:31:12.891Z,119.49858
2023-05-12T08:36:14.375Z,108.70588
2023-05-12T08:41:15.770Z,130.10272
2023-05-12T08:46:17.177Z,131.23404
2023-05-12T08:51:18.541Z,113.69697
2023-05-12T09:01:24.458Z,102.76289
2023-05-12T09:06:25.910Z,108.26667
2023-05-12T09:11:27.294Z,114.63712
2023-05-12T09:16:28.761Z,111.84741
2023-05-12T09:21:30.161Z,104.83551
2023-05-12T09:26:31.566Z,112.76712
2023-05-12T09:31:32.983Z,112.30601
2023-05-12T09:36:34.513Z,106.96296
2023-05-12T09:41:35.949Z,109.5914
2023-05-12T09:46:37.353Z,106.53298
2023-05-12T09:51:38.661Z,118.50425
2023-05-12T09:56:40.002Z,134.71207
2023-05-12T10:01:41.512Z,143.35275
2023-05-12T10:06:42.909Z,128.98498
2023-05-12T10:11:44.352Z,110.93767
2023-05-12T10:16:45.834Z,150.02007
2023-05-12T10:21:47.286Z,141.4359
2023-05-12T10:26:48.687Z,123.06977
2023-05-12T10:31:50.273Z,111.3913
2023-05-12T10:36:51.781Z,110.48649
2023-05-12T10:41:53.183Z,112.30601
2023-05-12T10:46:54.591Z,135.90031
2023-05-12T10:51:55.998Z,154.23891
2023-05-12T10:56:57.567Z,172.99628
2023-05-12T11:02:00.042Z,149.33333
2023-05-12T11:07:02.964Z,138.93671
2023-05-12T11:12:04.942Z,132.3792
2023-05-12T11:17:06.370Z,140.17834
2023-05-12T11:22:07.789Z,131.23404
2023-05-12T11:27:09.163Z,146.63158
2023-05-12T11:32:10.765Z,146.63158
2023-05-12T11:37:12.183Z,145.30719
2023-05-12T11:42:14.658Z,154.9589
2023-05-12T11:47:17.228Z,137.71069
2023-05-12T11:52:18.683Z,130.10272
2023-05-12T11:57:20.113Z,135.90031
2023-05-12T12:02:32.114Z,152.81356
2023-05-12T12:07:33.590Z,140.80511
2023-05-12T12:12:35.119Z,123.59184
2023-05-12T12:17:36.603Z,110.93767
2023-05-12T12:22:38.076Z,101.54476
2023-05-12T12:27:39.524Z,112.30601
2023-05-12T12:32:40.974Z,117.03371
2023-05-12T12:37:42.548Z,107.82979
2023-05-12T12:42:44.033Z,104.83551
2023-05-12T12:47:45.496Z,124.64516
2023-05-12T12:52:46.924Z,122.03468
2023-05-12T12:57:48.363Z,118.50425
2023-05-12T13:02:49.974Z,112.30601
2023-05-12T13:07:51.514Z,128.43114
2023-05-12T13:12:52.965Z,114.16575
2023-05-12T13:17:54.626Z,119.49858
2023-05-12T13:22:56.041Z,113.23077
2023-05-12T13:27:57.426Z,117.03371
2023-05-12T13:32:58.892Z,121.01149
2023-05-12T13:38:00.359Z,111.3913
2023-05-12T13:43:01.912Z,111.84741
2023-05-12T13:48:03.336Z,123.06977
2023-05-12T13:53:04.781Z,131.23404
2023-05-12T13:58:06.171Z,141.4359
2023-05-12T14:03:07.640Z,153.52381
2023-05-12T14:08:09.176Z,164
2023-05-12T14:13:10.581Z,166.38267
2023-05-12T14:18:12.895Z,159.38462
2023-05-12T14:23:15.664Z,165.58273
2023-05-12T14:28:17.145Z,179.1145
2023-05-12T14:33:18.584Z,202.82353
2023-05-12T14:38:20.006Z,230.51163
2023-05-12T14:43:21.437Z,241.58454
2023-05-12T14:48:22.853Z,212.99563
2023-05-12T14:53:24.316Z,208.37768
2023-05-12T14:58:25.768Z,229.18519
2023-05-12T15:03:27.226Z,243.02913
2023-05-12T15:08:28.743Z,261.52577
2023-05-12T15:13:30.143Z,273.41176
2023-05-12T15:18:31.604Z,264.83333
2023-05-12T15:23:33.078Z,244.4878
2023-05-12T15:28:34.530Z,234.56604
2023-05-12T15:33:35.904Z,258.28571
2023-05-12T15:38:37.341Z,256.69036
2023-05-12T15:43:38.753Z,282.46154
2023-05-12T15:48:40.206Z,292.0226
2023-05-12T15:53:41.599Z,276.97297
2023-05-12T15:58:42.994Z,275.1828
2023-05-12T16:03:44.465Z,296
2023-05-12T16:08:45.901Z,351.94702
2023-05-12T16:13:47.323Z,360.21622
2023-05-12T16:18:48.742Z,384
2023-05-12T16:23:50.162Z,371.77778
2023-05-12T16:28:51.545Z,457.33333
2023-05-12T16:33:52.994Z,363.04762
2023-05-12T16:38:54.396Z,319.60976
2023-05-12T16:43:55.937Z,351.94702
2023-05-12T16:48:57.400Z,302.13953
2023-05-12T16:53:58.771Z,349.26316
2023-05-12T16:59:00.172Z,344
2023-05-12T17:04:01.850Z,410.66667
2023-05-12T17:09:03.397Z,317.33333
2023-05-12T17:14:04.789Z,324.24691
2023-05-12T17:24:10.597Z,346.61438
2023-05-12T17:29:11.993Z,384
2023-05-12T17:34:13.418Z,377.80282
2023-05-12T17:39:14.852Z,302.13953
2023-05-12T17:44:16.250Z,280.61202
2023-05-12T17:49:17.672Z,261.52577
2023-05-12T17:54:19.158Z,256.69036
2023-05-12T17:59:20.515Z,253.54774
2023-05-12T18:04:21.921Z,261.52577
2023-05-12T18:09:23.322Z,319.60976
2023-05-12T18:14:24.725Z,288.13408
2023-05-12T18:19:26.189Z,302.13953
2023-05-12T18:24:27.622Z,417.84615
2023-05-12T18:29:29.024Z,329
2023-05-12T18:34:30.459Z,258.28571
2023-05-12T18:39:31.842Z,288.13408
2023-05-12T18:44:33.237Z,276.97297
2023-05-12T18:49:34.615Z,344
2023-05-12T18:54:36.007Z,233.20188
2023-05-12T18:59:37.419Z,261.52577
2023-05-12T19:04:38.850Z,245.96078
2023-05-12T19:09:40.455Z,211.82609
2023-05-12T19:14:41.912Z,207.24786
2023-05-12T19:19:43.317Z,195.42857
2023-05-12T19:24:44.723Z,215.36564
2023-05-12T19:29:46.168Z,222.73303
2023-05-12T19:34:47.565Z,233.20188
2023-05-12T19:39:48.984Z,216.56637
2023-05-12T19:44:50.426Z,240.15385
2023-05-12T19:49:51.855Z,244.4878
2023-05-12T19:54:53.225Z,255.11111
2023-05-12T19:59:54.607Z,198.54545
2023-05-12T20:04:56.004Z,205.01695
2023-05-12T20:09:57.403Z,250.46766
2023-05-12T20:14:58.822Z,308.49704
2023-05-12T20:20:00.226Z,344
2023-05-12T20:25:01.692Z,338.87179
2023-05-12T20:30:03.169Z,410.66667
2023-05-12T20:35:04.958Z,470.49573
2023-05-12T20:40:06.346Z,470.49573
2023-05-12T20:45:07.762Z,377.80282
2023-05-12T20:50:09.162Z,286.22222
2023-05-12T20:55:10.617Z,255.11111
2023-05-12T21:00:11.981Z,308.49704
2023-05-12T21:05:13.389Z,312.86228
2023-05-12T21:10:14.848Z,308.49704
2023-05-12T21:15:16.277Z,333.87342
2023-05-12T21:20:17.678Z,371.77778
2023-05-12T21:25:19.112Z,461.64706
2023-05-12T21:30:20.766Z,331.42138
2023-05-12T21:35:22.327Z,357.42282
2023-05-12T21:40:23.759Z,354.66667
2023-05-12T21:45:25.154Z,336.35669
2023-05-12T21:50:26.569Z,341.41935
2023-05-12T21:55:28.058Z,319.60976
2023-05-12T22:00:29.504Z,300.06936
2023-05-12T22:05:30.936Z,203.91561
2023-05-12T22:10:32.365Z,196.45902
2023-05-12T22:15:33.873Z,237.33333
2023-05-12T22:20:35.285Z,245.96078
2023-05-12T22:25:48.178Z,245.96078
2023-05-12T22:30:49.605Z,363.04762
2023-05-12T22:35:51.032Z,484.35088
2023-05-12T22:40:52.434Z,498.95495
2023-05-12T22:45:53.849Z,585.66667
2023-05-12T22:50:55.374Z,811.60563
2023-05-12T22:55:56.812Z,2225.48148
2023-05-12T23:00:58.317Z,1755.76471
2023-05-12T23:05:59.968Z,891.69231
2023-05-12T23:11:01.466Z,733.74359
2023-05-12T23:16:02.976Z,891.69231
2023-05-12T23:21:04.393Z,644
2023-05-12T23:26:05.831Z,811.60563
2023-05-12T23:31:07.357Z,2313.23077
2023-05-12T23:36:08.769Z,3024
2023-05-12T23:41:10.259Z,7644
2023-05-12T23:46:11.760Z,988.0678
2023-05-12T23:51:13.253Z,636.13483
2023-05-12T23:56:14.673Z,628.44444
